Pillsbury, ND (58065)

10:14 AM CST on February 10, 2016 (GMT -0600)
Valley City | | Change Station
CLOSE
Current Station
Airport
Location: Valley City,
Elevation: 1401 ft
Nearby Weather Stations
Active Advisory: Special Statement

Elev 1401 ft 46.94 °N, 98.02 °W | Updated 19 minutes ago

Overcast
Overcast
5 °F
Feels Like -11 °F
N
12
Wind Variable Wind from ESE

Today
High -- | Low -- °F
--% Chance of Precip.
Yesterday
High -- | Low -- °F
Precip. -- in
Pressure 30.05 in
Visibility 9.0 miles
Clouds Overcast 300 ft
Windchill -11 °F
Dew Point 3 °F
Humidity 92%
Rainfall 2.04 in
Snow Depth Not available.
7:44 AM 5:46 PM
Waxing Crescent, 6% visible
METAR KBAC 101555Z AUTO 12010KT 9SM OVC003 M15/M16 A3005 RMK AO2
Pressure 30.05 in
Visibility 9.0 miles
Clouds Overcast 300 ft
Windchill -11 °F
Dew Point 3 °F
Humidity 92%
Rainfall 2.04 in
Snow Depth Not available.
7:44 AM 5:46 PM
Waxing Crescent, 6% visible
METAR KBAC 101555Z AUTO 12010KT 9SM OVC003 M15/M16 A3005 RMK AO2

10-Day Weather Forecast

Almanac

Astronomy

Feb. 10, 2016 Rise Set
Actual Time
Civil Twilight
Nautical Twilight
Astronomical Twilight
Moon
Length of Visible Light
Length of Day
Tomorrow will be .
, % of the Moon is Illuminated

Today's Extremes

State Highs State Lows

Community

WunderPhotos

Upload Photos

1,891,864 photos uploaded!

WunderBlog® & News

Nearby

Air Quality

  Air Quality AQ Index Pollutant
Not available.

Snow Depth

Station Depth Elevation

Earthquake Activity

City Distance Mag. Time & Date
Minimum magnitude displayed is 2.5.

Coastal Water Temperatures

Place Temperature

Stations

Nearby Weather Stations

Station Location Temp. Windchill Dew Point Humidity Wind Precip. Elev Updated Type
                   

Watches & Warnings

Special Statement
Issued: 6:14 AM CST Feb. 10, 2016 – National Weather Service

... Snow continues through early afternoon...

A quick moving clipper will likely produce 1 to 3 inches of snow
for the Devils Lake basin to Valley City to Forman area by early
afternoon. There is also chance for a narrow area of heavier
snowfall... up to 5 inches... within this snow band.


Hopkins

614 am CST Wed Feb 10 2016

... Snow continues through early afternoon...

A quick moving clipper will likely produce 1 to 3 inches of snow
for the Devils Lake basin to Valley City to Forman area by early
afternoon. There is also chance for a narrow area of heavier
snowfall... up to 5 inches... within this snow band.


Hopkins